Silver Bay Municipal, MN

5:22 AM CDT on October 21, 2014 (GMT -0500)
Ely Municipal | Change Station
CLOSE
Current Station
Airport
Location: Ely,
Elevation: 1453 ft
Nearby Weather Stations

Elev 1453 ft 47.82 °N, 91.83 °W | Updated 10 minutes ago

Partly Cloudy
Partly Cloudy
37 °F
Feels Like 37 °F
N
0
Wind Variable Wind from North

Today
High -- | Low -- °F
--% Chance of Precip.
Yesterday
High -- | Low -- °F
Precip. -- in
7:32 AM 6:07 PM
Waning Crescent, 6% visible
Pressure 30.19 in
Visibility 10.0 miles
Clouds Overcast 1800 ft
Dew Point 32 °F
Humidity 81%
Rainfall 0.00 in
Snow Depth Not available.
UV 0 out of 12
Pollen 1.30 out of 12
Air Quality Not available.
Flu Activity Sporadic
METAR KELO 211012Z AUTO 00000KT 10SM OVC018 03/00 A3019 RMK AO2

More Conditions Fewer Conditions

Pressure 30.19 in
Visibility 10.0 miles
Clouds Overcast 1800 ft
Dew Point 32 °F
Humidity 81%
Rainfall 0.00 in
Snow Depth Not available.
UV 0 out of 12
Pollen 1.30 out of 12
Air Quality Not available.
Flu Activity Sporadic
METAR KELO 211012Z AUTO 00000KT 10SM OVC018 03/00 A3019 RMK AO2

More Conditions Fewer Conditions

10-Day Weather Forecast

Almanac

Astronomy

Oct. 21, 2014 Rise Set
Actual Time 7:32 AM CDT 6:07 PM CDT
Civil Twilight 7:01 AM CDT 6:38 PM CDT
Nautical Twilight 6:25 AM CDT 7:13 PM CDT
Astronomical Twilight 5:50 AM CDT 7:49 PM CDT
Moon 5:08 AM CDT 5:08 PM CDT
Length of Visible Light 11h 36m
Length of Day
10h 34m
Tomorrow will be 3m 13s shorter.
Waning Crescent, 6% of the Moon is Illuminated
Today
Waning Crescent
Oct 23
New
Oct 30
First Quarter
Nov 6
Full
Nov 14
Last Quarter

Today's Extremes

State Highs State Lows

Community

WunderPhotos

Upload Photos

1,763,625 photos uploaded!

Nearby

Snow Depth

Station Depth Elevation
No new snow has been reported.

Earthquake Activity

City Distance Mag. Time & Date
No recent earthquake activity has been reported nearby.
Minimum magnitude displayed is 2.5.

Coastal Water Temperatures

Place Temperature
Duluth, MN 54.0 °F

Nearby Weather Stations